sensor_id;sensor_type;location;lat;lon;timestamp;P1;durP1;ratioP1;P2;durP2;ratioP2
4630;SDS011;2328;48.170;11.602;2023-05-20T00:01:45;3.83;;;3.03;;
4630;SDS011;2328;48.170;11.602;2023-05-20T00:04:16;3.00;;;2.70;;
4630;SDS011;2328;48.170;11.602;2023-05-20T00:06:45;3.47;;;2.70;;
4630;SDS011;2328;48.170;11.602;2023-05-20T00:09:13;4.70;;;2.57;;
4630;SDS011;2328;48.170;11.602;2023-05-20T00:11:42;2.43;;;2.00;;
4630;SDS011;2328;48.170;11.602;2023-05-20T00:14:11;4.40;;;3.30;;
4630;SDS011;2328;48.170;11.602;2023-05-20T00:16:40;3.53;;;2.70;;
4630;SDS011;2328;48.170;11.602;2023-05-20T00:19:09;3.93;;;2.47;;
4630;SDS011;2328;48.170;11.602;2023-05-20T00:21:39;3.37;;;2.57;;
4630;SDS011;2328;48.170;11.602;2023-05-20T00:24:07;4.10;;;3.20;;
4630;SDS011;2328;48.170;11.602;2023-05-20T00:26:37;3.13;;;2.70;;
4630;SDS011;2328;48.170;11.602;2023-05-20T00:29:06;2.43;;;2.23;;
4630;SDS011;2328;48.170;11.602;2023-05-20T00:31:34;5.00;;;2.80;;
4630;SDS011;2328;48.170;11.602;2023-05-20T00:34:03;3.10;;;2.47;;
4630;SDS011;2328;48.170;11.602;2023-05-20T00:36:34;3.63;;;2.40;;
4630;SDS011;2328;48.170;11.602;2023-05-20T00:39:05;2.43;;;1.93;;
4630;SDS011;2328;48.170;11.602;2023-05-20T00:44:15;7.90;;;3.27;;
4630;SDS011;2328;48.170;11.602;2023-05-20T00:46:44;3.03;;;2.50;;
4630;SDS011;2328;48.170;11.602;2023-05-20T00:49:15;2.73;;;2.53;;
4630;SDS011;2328;48.170;11.602;2023-05-20T00:51:44;3.63;;;2.43;;
4630;SDS011;2328;48.170;11.602;2023-05-20T00:54:15;2.87;;;2.40;;
4630;SDS011;2328;48.170;11.602;2023-05-20T00:56:44;3.63;;;2.80;;
4630;SDS011;2328;48.170;11.602;2023-05-20T00:59:13;3.87;;;3.10;;
4630;SDS011;2328;48.170;11.602;2023-05-20T01:01:41;3.73;;;2.50;;
4630;SDS011;2328;48.170;11.602;2023-05-20T01:04:10;2.73;;;2.43;;
4630;SDS011;2328;48.170;11.602;2023-05-20T01:06:39;3.20;;;2.63;;
4630;SDS011;2328;48.170;11.602;2023-05-20T01:09:07;2.73;;;2.07;;
4630;SDS011;2328;48.170;11.602;2023-05-20T01:11:39;5.27;;;3.10;;
4630;SDS011;2328;48.170;11.602;2023-05-20T01:14:10;5.87;;;2.63;;
4630;SDS011;2328;48.170;11.602;2023-05-20T01:16:40;3.87;;;2.70;;
4630;SDS011;2328;48.170;11.602;2023-05-20T01:19:13;7.13;;;3.13;;
4630;SDS011;2328;48.170;11.602;2023-05-20T01:21:47;3.00;;;2.67;;
4630;SDS011;2328;48.170;11.602;2023-05-20T01:24:18;4.43;;;3.10;;
4630;SDS011;2328;48.170;11.602;2023-05-20T01:26:48;7.83;;;3.00;;
4630;SDS011;2328;48.170;11.602;2023-05-20T01:29:17;3.40;;;2.73;;
4630;SDS011;2328;48.170;11.602;2023-05-20T01:31:46;3.50;;;3.20;;
4630;SDS011;2328;48.170;11.602;2023-05-20T01:34:15;4.37;;;3.47;;
4630;SDS011;2328;48.170;11.602;2023-05-20T01:36:44;5.83;;;3.40;;
4630;SDS011;2328;48.170;11.602;2023-05-20T01:39:12;4.37;;;3.27;;
4630;SDS011;2328;48.170;11.602;2023-05-20T01:41:43;5.63;;;3.23;;
4630;SDS011;2328;48.170;11.602;2023-05-20T01:44:13;3.90;;;3.33;;
4630;SDS011;2328;48.170;11.602;2023-05-20T01:46:47;3.57;;;3.17;;
4630;SDS011;2328;48.170;11.602;2023-05-20T01:49:15;4.87;;;3.20;;
4630;SDS011;2328;48.170;11.602;2023-05-20T01:51:47;3.27;;;2.97;;
4630;SDS011;2328;48.170;11.602;2023-05-20T01:54:16;5.37;;;3.43;;
4630;SDS011;2328;48.170;11.602;2023-05-20T01:56:46;3.67;;;3.37;;
4630;SDS011;2328;48.170;11.602;2023-05-20T01:59:15;5.80;;;3.50;;
4630;SDS011;2328;48.170;11.602;2023-05-20T02:01:44;6.93;;;4.17;;
4630;SDS011;2328;48.170;11.602;2023-05-20T02:04:14;3.97;;;3.10;;
4630;SDS011;2328;48.170;11.602;2023-05-20T02:06:44;6.90;;;3.80;;
4630;SDS011;2328;48.170;11.602;2023-05-20T02:09:13;3.33;;;3.00;;
4630;SDS011;2328;48.170;11.602;2023-05-20T02:11:42;4.70;;;3.17;;
4630;SDS011;2328;48.170;11.602;2023-05-20T02:14:13;5.27;;;3.43;;
4630;SDS011;2328;48.170;11.602;2023-05-20T02:16:41;5.63;;;3.83;;
4630;SDS011;2328;48.170;11.602;2023-05-20T02:19:10;6.00;;;4.33;;
4630;SDS011;2328;48.170;11.602;2023-05-20T02:21:40;5.90;;;4.10;;
4630;SDS011;2328;48.170;11.602;2023-05-20T02:24:09;6.47;;;4.03;;
4630;SDS011;2328;48.170;11.602;2023-05-20T02:26:38;8.30;;;4.70;;
4630;SDS011;2328;48.170;11.602;2023-05-20T02:29:07;4.90;;;4.00;;
4630;SDS011;2328;48.170;11.602;2023-05-20T02:31:37;5.73;;;4.10;;
4630;SDS011;2328;48.170;11.602;2023-05-20T02:34:05;3.80;;;3.43;;
4630;SDS011;2328;48.170;11.602;2023-05-20T02:36:38;5.63;;;4.10;;
4630;SDS011;2328;48.170;11.602;2023-05-20T02:39:07;4.50;;;3.37;;
4630;SDS011;2328;48.170;11.602;2023-05-20T02:41:36;4.40;;;4.00;;
4630;SDS011;2328;48.170;11.602;2023-05-20T02:44:05;5.43;;;4.10;;
4630;SDS011;2328;48.170;11.602;2023-05-20T02:46:34;4.97;;;3.50;;
4630;SDS011;2328;48.170;11.602;2023-05-20T02:49:04;5.63;;;3.80;;
4630;SDS011;2328;48.170;11.602;2023-05-20T02:51:33;6.40;;;4.37;;
4630;SDS011;2328;48.170;11.602;2023-05-20T02:54:02;8.73;;;4.67;;
4630;SDS011;2328;48.170;11.602;2023-05-20T02:56:30;6.80;;;4.60;;
4630;SDS011;2328;48.170;11.602;2023-05-20T02:58:59;6.97;;;4.63;;
4630;SDS011;2328;48.170;11.602;2023-05-20T03:01:28;13.57;;;4.30;;
4630;SDS011;2328;48.170;11.602;2023-05-20T03:03:59;4.73;;;4.23;;
4630;SDS011;2328;48.170;11.602;2023-05-20T03:06:30;10.23;;;4.33;;
4630;SDS011;2328;48.170;11.602;2023-05-20T03:08:59;11.40;;;5.90;;
4630;SDS011;2328;48.170;11.602;2023-05-20T03:11:28;6.33;;;4.10;;
4630;SDS011;2328;48.170;11.602;2023-05-20T03:13:56;7.13;;;5.60;;
4630;SDS011;2328;48.170;11.602;2023-05-20T03:16:25;7.43;;;4.53;;
4630;SDS011;2328;48.170;11.602;2023-05-20T03:18:54;8.07;;;4.50;;
4630;SDS011;2328;48.170;11.602;2023-05-20T03:21:23;6.80;;;4.53;;
4630;SDS011;2328;48.170;11.602;2023-05-20T03:23:54;6.63;;;4.53;;
4630;SDS011;2328;48.170;11.602;2023-05-20T03:26:23;9.53;;;5.27;;
4630;SDS011;2328;48.170;11.602;2023-05-20T03:28:53;7.83;;;5.23;;
4630;SDS011;2328;48.170;11.602;2023-05-20T03:31:22;7.87;;;5.33;;
4630;SDS011;2328;48.170;11.602;2023-05-20T03:33:51;7.10;;;4.50;;
4630;SDS011;2328;48.170;11.602;2023-05-20T03:36:19;7.40;;;5.27;;
4630;SDS011;2328;48.170;11.602;2023-05-20T03:38:48;6.60;;;5.07;;
4630;SDS011;2328;48.170;11.602;2023-05-20T03:41:18;7.53;;;4.73;;
4630;SDS011;2328;48.170;11.602;2023-05-20T03:43:46;9.57;;;5.83;;
4630;SDS011;2328;48.170;11.602;2023-05-20T03:46:15;10.23;;;4.80;;
4630;SDS011;2328;48.170;11.602;2023-05-20T03:48:44;7.77;;;5.20;;
4630;SDS011;2328;48.170;11.602;2023-05-20T03:51:12;7.60;;;4.73;;
4630;SDS011;2328;48.170;11.602;2023-05-20T03:53:41;7.67;;;3.93;;
4630;SDS011;2328;48.170;11.602;2023-05-20T03:56:09;9.40;;;4.90;;
4630;SDS011;2328;48.170;11.602;2023-05-20T03:58:39;7.90;;;4.10;;
4630;SDS011;2328;48.170;11.602;2023-05-20T04:01:08;8.67;;;5.33;;
4630;SDS011;2328;48.170;11.602;2023-05-20T04:03:38;7.50;;;4.90;;
4630;SDS011;2328;48.170;11.602;2023-05-20T04:06:08;10.07;;;6.00;;
4630;SDS011;2328;48.170;11.602;2023-05-20T04:08:36;4.87;;;4.10;;
4630;SDS011;2328;48.170;11.602;2023-05-20T04:11:05;10.47;;;4.87;;
4630;SDS011;2328;48.170;11.602;2023-05-20T04:13:33;5.77;;;4.70;;
4630;SDS011;2328;48.170;11.602;2023-05-20T04:16:04;5.60;;;4.57;;
4630;SDS011;2328;48.170;11.602;2023-05-20T04:18:33;7.40;;;4.73;;
4630;SDS011;2328;48.170;11.602;2023-05-20T04:21:04;10.63;;;5.67;;
4630;SDS011;2328;48.170;11.602;2023-05-20T04:23:33;9.70;;;5.57;;
4630;SDS011;2328;48.170;11.602;2023-05-20T04:26:02;10.57;;;5.80;;
4630;SDS011;2328;48.170;11.602;2023-05-20T04:28:31;5.87;;;5.20;;
4630;SDS011;2328;48.170;11.602;2023-05-20T04:31:00;14.83;;;5.27;;
4630;SDS011;2328;48.170;11.602;2023-05-20T04:33:31;9.00;;;6.03;;
4630;SDS011;2328;48.170;11.602;2023-05-20T04:36:06;8.47;;;5.73;;
4630;SDS011;2328;48.170;11.602;2023-05-20T04:38:35;9.17;;;6.17;;
4630;SDS011;2328;48.170;11.602;2023-05-20T04:41:03;8.63;;;5.50;;
4630;SDS011;2328;48.170;11.602;2023-05-20T04:43:33;6.40;;;4.50;;
4630;SDS011;2328;48.170;11.602;2023-05-20T04:46:04;9.83;;;5.70;;
4630;SDS011;2328;48.170;11.602;2023-05-20T04:48:34;8.90;;;6.10;;
4630;SDS011;2328;48.170;11.602;2023-05-20T04:51:12;11.57;;;5.27;;
4630;SDS011;2328;48.170;11.602;2023-05-20T04:53:41;8.47;;;5.30;;
4630;SDS011;2328;48.170;11.602;2023-05-20T04:56:11;8.70;;;4.90;;
4630;SDS011;2328;48.170;11.602;2023-05-20T04:58:40;12.33;;;6.53;;
4630;SDS011;2328;48.170;11.602;2023-05-20T05:01:14;18.07;;;7.27;;
4630;SDS011;2328;48.170;11.602;2023-05-20T05:03:52;11.40;;;6.10;;
4630;SDS011;2328;48.170;11.602;2023-05-20T05:06:21;11.07;;;6.57;;
4630;SDS011;2328;48.170;11.602;2023-05-20T05:08:49;12.47;;;7.40;;
4630;SDS011;2328;48.170;11.602;2023-05-20T05:11:18;19.20;;;8.40;;
4630;SDS011;2328;48.170;11.602;2023-05-20T05:13:47;15.87;;;8.63;;
4630;SDS011;2328;48.170;11.602;2023-05-20T05:16:16;15.30;;;7.67;;
4630;SDS011;2328;48.170;11.602;2023-05-20T05:18:45;15.07;;;8.57;;
4630;SDS011;2328;48.170;11.602;2023-05-20T05:21:15;19.67;;;9.40;;
4630;SDS011;2328;48.170;11.602;2023-05-20T05:23:45;18.57;;;8.77;;
4630;SDS011;2328;48.170;11.602;2023-05-20T05:26:13;18.43;;;9.43;;
4630;SDS011;2328;48.170;11.602;2023-05-20T05:28:42;13.83;;;8.03;;
4630;SDS011;2328;48.170;11.602;2023-05-20T05:31:11;16.33;;;8.00;;
4630;SDS011;2328;48.170;11.602;2023-05-20T05:33:42;15.87;;;7.50;;
4630;SDS011;2328;48.170;11.602;2023-05-20T05:36:11;18.90;;;9.50;;
4630;SDS011;2328;48.170;11.602;2023-05-20T05:38:41;21.60;;;9.83;;
4630;SDS011;2328;48.170;11.602;2023-05-20T05:41:10;19.43;;;8.73;;
4630;SDS011;2328;48.170;11.602;2023-05-20T05:43:39;23.23;;;9.13;;
4630;SDS011;2328;48.170;11.602;2023-05-20T05:46:08;16.37;;;7.37;;
4630;SDS011;2328;48.170;11.602;2023-05-20T05:48:38;19.60;;;9.47;;
4630;SDS011;2328;48.170;11.602;2023-05-20T05:51:27;14.87;;;8.57;;
4630;SDS011;2328;48.170;11.602;2023-05-20T05:53:57;17.43;;;7.67;;
4630;SDS011;2328;48.170;11.602;2023-05-20T05:56:29;26.37;;;8.80;;
4630;SDS011;2328;48.170;11.602;2023-05-20T05:58:58;17.43;;;9.00;;
4630;SDS011;2328;48.170;11.602;2023-05-20T06:01:26;14.40;;;7.73;;
4630;SDS011;2328;48.170;11.602;2023-05-20T06:03:59;15.33;;;7.77;;
4630;SDS011;2328;48.170;11.602;2023-05-20T06:06:36;19.03;;;8.93;;
4630;SDS011;2328;48.170;11.602;2023-05-20T06:09:07;13.57;;;8.30;;
4630;SDS011;2328;48.170;11.602;2023-05-20T06:11:41;16.93;;;8.50;;
4630;SDS011;2328;48.170;11.602;2023-05-20T06:14:10;12.93;;;7.13;;
4630;SDS011;2328;48.170;11.602;2023-05-20T06:16:40;16.47;;;8.93;;
4630;SDS011;2328;48.170;11.602;2023-05-20T06:19:08;15.20;;;8.37;;
4630;SDS011;2328;48.170;11.602;2023-05-20T06:21:42;15.20;;;8.20;;
4630;SDS011;2328;48.170;11.602;2023-05-20T06:24:13;18.60;;;8.60;;
4630;SDS011;2328;48.170;11.602;2023-05-20T06:26:42;14.23;;;7.90;;
4630;SDS011;2328;48.170;11.602;2023-05-20T06:29:11;22.03;;;8.30;;
4630;SDS011;2328;48.170;11.602;2023-05-20T06:31:40;17.83;;;8.50;;
4630;SDS011;2328;48.170;11.602;2023-05-20T06:34:15;12.73;;;7.93;;
4630;SDS011;2328;48.170;11.602;2023-05-20T06:36:44;16.50;;;7.93;;
4630;SDS011;2328;48.170;11.602;2023-05-20T06:39:14;19.70;;;7.60;;
4630;SDS011;2328;48.170;11.602;2023-05-20T06:41:43;13.40;;;7.50;;
4630;SDS011;2328;48.170;11.602;2023-05-20T06:44:13;18.00;;;8.10;;
4630;SDS011;2328;48.170;11.602;2023-05-20T06:46:41;18.77;;;9.00;;
4630;SDS011;2328;48.170;11.602;2023-05-20T06:49:10;12.53;;;7.50;;
4630;SDS011;2328;48.170;11.602;2023-05-20T06:51:44;13.00;;;7.40;;
4630;SDS011;2328;48.170;11.602;2023-05-20T06:54:14;11.80;;;7.40;;
4630;SDS011;2328;48.170;11.602;2023-05-20T06:56:43;11.47;;;7.23;;
4630;SDS011;2328;48.170;11.602;2023-05-20T06:59:19;14.83;;;7.30;;
4630;SDS011;2328;48.170;11.602;2023-05-20T07:01:47;14.10;;;7.87;;
4630;SDS011;2328;48.170;11.602;2023-05-20T07:04:16;15.20;;;6.90;;
4630;SDS011;2328;48.170;11.602;2023-05-20T07:06:45;16.80;;;8.03;;
4630;SDS011;2328;48.170;11.602;2023-05-20T07:09:18;14.63;;;8.07;;
4630;SDS011;2328;48.170;11.602;2023-05-20T07:11:47;13.07;;;6.90;;
4630;SDS011;2328;48.170;11.602;2023-05-20T07:14:15;13.43;;;7.53;;
4630;SDS011;2328;48.170;11.602;2023-05-20T07:16:44;12.20;;;7.50;;
4630;SDS011;2328;48.170;11.602;2023-05-20T07:19:23;18.73;;;8.90;;
4630;SDS011;2328;48.170;11.602;2023-05-20T07:21:52;16.50;;;7.37;;
4630;SDS011;2328;48.170;11.602;2023-05-20T07:24:23;13.10;;;6.80;;
4630;SDS011;2328;48.170;11.602;2023-05-20T07:26:59;11.73;;;7.40;;
4630;SDS011;2328;48.170;11.602;2023-05-20T07:29:29;15.13;;;7.90;;
4630;SDS011;2328;48.170;11.602;2023-05-20T07:31:58;12.63;;;7.80;;
4630;SDS011;2328;48.170;11.602;2023-05-20T07:34:31;15.23;;;8.73;;
4630;SDS011;2328;48.170;11.602;2023-05-20T07:36:59;11.60;;;7.67;;
4630;SDS011;2328;48.170;11.602;2023-05-20T07:39:31;16.03;;;8.37;;
4630;SDS011;2328;48.170;11.602;2023-05-20T07:42:26;10.20;;;6.97;;
4630;SDS011;2328;48.170;11.602;2023-05-20T07:45:02;10.97;;;7.40;;
4630;SDS011;2328;48.170;11.602;2023-05-20T07:47:32;13.83;;;7.80;;
4630;SDS011;2328;48.170;11.602;2023-05-20T07:50:01;12.97;;;8.00;;
4630;SDS011;2328;48.170;11.602;2023-05-20T07:55:32;10.23;;;6.30;;
4630;SDS011;2328;48.170;11.602;2023-05-20T08:00:51;8.37;;;6.50;;
4630;SDS011;2328;48.170;11.602;2023-05-20T08:03:27;10.27;;;7.53;;
4630;SDS011;2328;48.170;11.602;2023-05-20T08:05:58;9.10;;;6.57;;
4630;SDS011;2328;48.170;11.602;2023-05-20T08:08:26;9.53;;;6.73;;
4630;SDS011;2328;48.170;11.602;2023-05-20T08:11:01;10.10;;;6.97;;
4630;SDS011;2328;48.170;11.602;2023-05-20T08:13:32;7.90;;;5.50;;
4630;SDS011;2328;48.170;11.602;2023-05-20T08:16:02;6.00;;;5.33;;
4630;SDS011;2328;48.170;11.602;2023-05-20T08:18:34;5.80;;;5.00;;
4630;SDS011;2328;48.170;11.602;2023-05-20T08:21:05;5.67;;;4.07;;
4630;SDS011;2328;48.170;11.602;2023-05-20T08:23:34;6.40;;;4.80;;
4630;SDS011;2328;48.170;11.602;2023-05-20T08:26:05;5.50;;;4.37;;
4630;SDS011;2328;48.170;11.602;2023-05-20T08:28:37;3.37;;;3.07;;
4630;SDS011;2328;48.170;11.602;2023-05-20T08:31:08;6.53;;;4.70;;
4630;SDS011;2328;48.170;11.602;2023-05-20T08:33:37;4.77;;;4.17;;
4630;SDS011;2328;48.170;11.602;2023-05-20T08:36:07;6.43;;;4.77;;
4630;SDS011;2328;48.170;11.602;2023-05-20T08:38:36;4.97;;;4.20;;
4630;SDS011;2328;48.170;11.602;2023-05-20T08:41:05;4.13;;;3.67;;
4630;SDS011;2328;48.170;11.602;2023-05-20T08:43:35;6.23;;;4.60;;
4630;SDS011;2328;48.170;11.602;2023-05-20T08:46:04;6.90;;;4.97;;
4630;SDS011;2328;48.170;11.602;2023-05-20T08:48:34;5.10;;;3.90;;
4630;SDS011;2328;48.170;11.602;2023-05-20T08:51:03;5.07;;;3.77;;
4630;SDS011;2328;48.170;11.602;2023-05-20T08:53:33;6.10;;;4.10;;
4630;SDS011;2328;48.170;11.602;2023-05-20T08:56:01;4.30;;;3.90;;
4630;SDS011;2328;48.170;11.602;2023-05-20T08:58:30;8.60;;;3.90;;
4630;SDS011;2328;48.170;11.602;2023-05-20T09:00:59;4.83;;;4.00;;
4630;SDS011;2328;48.170;11.602;2023-05-20T09:03:29;4.70;;;3.57;;
4630;SDS011;2328;48.170;11.602;2023-05-20T09:06:08;3.50;;;3.20;;
4630;SDS011;2328;48.170;11.602;2023-05-20T09:08:42;3.33;;;3.03;;
4630;SDS011;2328;48.170;11.602;2023-05-20T09:11:12;5.87;;;3.83;;
4630;SDS011;2328;48.170;11.602;2023-05-20T09:13:48;3.60;;;3.23;;
4630;SDS011;2328;48.170;11.602;2023-05-20T09:16:19;4.00;;;3.20;;
4630;SDS011;2328;48.170;11.602;2023-05-20T09:18:48;8.40;;;3.03;;
4630;SDS011;2328;48.170;11.602;2023-05-20T09:21:23;3.27;;;2.80;;
4630;SDS011;2328;48.170;11.602;2023-05-20T09:23:52;4.43;;;2.50;;
4630;SDS011;2328;48.170;11.602;2023-05-20T09:26:22;3.47;;;2.63;;
4630;SDS011;2328;48.170;11.602;2023-05-20T09:28:51;1.90;;;1.80;;
4630;SDS011;2328;48.170;11.602;2023-05-20T09:31:25;2.80;;;2.60;;
4630;SDS011;2328;48.170;11.602;2023-05-20T09:34:05;2.23;;;2.00;;
4630;SDS011;2328;48.170;11.602;2023-05-20T09:36:36;2.77;;;2.33;;
4630;SDS011;2328;48.170;11.602;2023-05-20T09:39:08;2.37;;;2.17;;
4630;SDS011;2328;48.170;11.602;2023-05-20T09:41:38;2.70;;;2.30;;
4630;SDS011;2328;48.170;11.602;2023-05-20T09:44:07;3.63;;;2.53;;
4630;SDS011;2328;48.170;11.602;2023-05-20T09:46:43;3.50;;;1.87;;
4630;SDS011;2328;48.170;11.602;2023-05-20T09:49:13;6.03;;;2.60;;
4630;SDS011;2328;48.170;11.602;2023-05-20T09:51:43;2.20;;;2.00;;
4630;SDS011;2328;48.170;11.602;2023-05-20T09:54:12;2.17;;;1.97;;
4630;SDS011;2328;48.170;11.602;2023-05-20T09:56:42;2.70;;;2.20;;
4630;SDS011;2328;48.170;11.602;2023-05-20T09:59:11;12.93;;;3.27;;
4630;SDS011;2328;48.170;11.602;2023-05-20T10:01:44;4.63;;;2.60;;
4630;SDS011;2328;48.170;11.602;2023-05-20T10:04:16;2.67;;;2.40;;
4630;SDS011;2328;48.170;11.602;2023-05-20T10:07:05;5.40;;;2.90;;
4630;SDS011;2328;48.170;11.602;2023-05-20T10:09:42;2.53;;;2.20;;
4630;SDS011;2328;48.170;11.602;2023-05-20T10:12:14;3.87;;;2.70;;
4630;SDS011;2328;48.170;11.602;2023-05-20T10:14:49;3.20;;;2.13;;
4630;SDS011;2328;48.170;11.602;2023-05-20T10:17:22;3.03;;;2.07;;
4630;SDS011;2328;48.170;11.602;2023-05-20T10:19:56;2.70;;;2.33;;
4630;SDS011;2328;48.170;11.602;2023-05-20T10:22:27;2.67;;;2.30;;
4630;SDS011;2328;48.170;11.602;2023-05-20T10:24:57;3.20;;;2.40;;
4630;SDS011;2328;48.170;11.602;2023-05-20T10:27:26;3.10;;;2.57;;
4630;SDS011;2328;48.170;11.602;2023-05-20T10:29:55;3.30;;;2.50;;
4630;SDS011;2328;48.170;11.602;2023-05-20T10:32:25;3.13;;;2.73;;
4630;SDS011;2328;48.170;11.602;2023-05-20T10:34:57;3.70;;;2.50;;
4630;SDS011;2328;48.170;11.602;2023-05-20T10:37:29;2.60;;;2.40;;
4630;SDS011;2328;48.170;11.602;2023-05-20T10:40:02;3.90;;;2.90;;
4630;SDS011;2328;48.170;11.602;2023-05-20T10:42:31;2.33;;;2.13;;
4630;SDS011;2328;48.170;11.602;2023-05-20T10:45:02;2.13;;;1.97;;
4630;SDS011;2328;48.170;11.602;2023-05-20T10:47:31;3.13;;;2.40;;
4630;SDS011;2328;48.170;11.602;2023-05-20T10:50:01;2.40;;;1.87;;
4630;SDS011;2328;48.170;11.602;2023-05-20T10:52:34;3.17;;;2.23;;
4630;SDS011;2328;48.170;11.602;2023-05-20T10:55:05;3.43;;;2.73;;
4630;SDS011;2328;48.170;11.602;2023-05-20T10:57:33;2.70;;;2.10;;
4630;SDS011;2328;48.170;11.602;2023-05-20T11:00:03;2.03;;;1.93;;
4630;SDS011;2328;48.170;11.602;2023-05-20T11:02:35;2.70;;;2.30;;
4630;SDS011;2328;48.170;11.602;2023-05-20T11:05:06;2.40;;;2.10;;
4630;SDS011;2328;48.170;11.602;2023-05-20T11:07:42;3.70;;;1.60;;
4630;SDS011;2328;48.170;11.602;2023-05-20T11:10:10;1.93;;;1.73;;
4630;SDS011;2328;48.170;11.602;2023-05-20T11:12:42;5.40;;;1.70;;
4630;SDS011;2328;48.170;11.602;2023-05-20T11:15:11;1.60;;;1.50;;
4630;SDS011;2328;48.170;11.602;2023-05-20T11:17:50;1.80;;;1.70;;
4630;SDS011;2328;48.170;11.602;2023-05-20T11:20:23;2.27;;;2.07;;
4630;SDS011;2328;48.170;11.602;2023-05-20T11:22:58;1.93;;;1.50;;
4630;SDS011;2328;48.170;11.602;2023-05-20T11:25:27;1.70;;;1.60;;
4630;SDS011;2328;48.170;11.602;2023-05-20T11:27:58;2.13;;;1.93;;
4630;SDS011;2328;48.170;11.602;2023-05-20T11:30:38;2.73;;;2.07;;
4630;SDS011;2328;48.170;11.602;2023-05-20T11:33:15;2.63;;;2.33;;
4630;SDS011;2328;48.170;11.602;2023-05-20T11:35:46;3.10;;;2.50;;
4630;SDS011;2328;48.170;11.602;2023-05-20T11:38:17;1.60;;;1.40;;
4630;SDS011;2328;48.170;11.602;2023-05-20T11:40:52;3.20;;;2.10;;
4630;SDS011;2328;48.170;11.602;2023-05-20T11:43:22;1.93;;;1.73;;
4630;SDS011;2328;48.170;11.602;2023-05-20T11:45:59;3.43;;;2.47;;
4630;SDS011;2328;48.170;11.602;2023-05-20T11:48:28;2.70;;;2.10;;
4630;SDS011;2328;48.170;11.602;2023-05-20T11:50:59;3.40;;;1.77;;
4630;SDS011;2328;48.170;11.602;2023-05-20T11:53:39;2.50;;;2.30;;
4630;SDS011;2328;48.170;11.602;2023-05-20T11:56:08;2.70;;;2.23;;
4630;SDS011;2328;48.170;11.602;2023-05-20T11:58:52;2.67;;;2.27;;
4630;SDS011;2328;48.170;11.602;2023-05-20T12:01:25;2.23;;;1.93;;
4630;SDS011;2328;48.170;11.602;2023-05-20T12:06:42;2.13;;;1.73;;
4630;SDS011;2328;48.170;11.602;2023-05-20T12:09:19;4.63;;;2.40;;
4630;SDS011;2328;48.170;11.602;2023-05-20T12:11:57;2.17;;;1.97;;
4630;SDS011;2328;48.170;11.602;2023-05-20T12:14:28;4.37;;;2.20;;
4630;SDS011;2328;48.170;11.602;2023-05-20T12:16:58;3.23;;;2.10;;
4630;SDS011;2328;48.170;11.602;2023-05-20T12:19:28;3.53;;;2.00;;
4630;SDS011;2328;48.170;11.602;2023-05-20T12:21:59;1.90;;;1.80;;
4630;SDS011;2328;48.170;11.602;2023-05-20T12:24:31;3.37;;;2.73;;
4630;SDS011;2328;48.170;11.602;2023-05-20T12:27:01;2.70;;;2.50;;
4630;SDS011;2328;48.170;11.602;2023-05-20T12:29:33;5.20;;;2.47;;
4630;SDS011;2328;48.170;11.602;2023-05-20T12:32:03;2.70;;;2.50;;
4630;SDS011;2328;48.170;11.602;2023-05-20T12:34:41;4.20;;;2.97;;
4630;SDS011;2328;48.170;11.602;2023-05-20T12:37:10;5.30;;;4.30;;
4630;SDS011;2328;48.170;11.602;2023-05-20T12:39:41;2.63;;;2.43;;
4630;SDS011;2328;48.170;11.602;2023-05-20T12:42:10;4.10;;;3.40;;
4630;SDS011;2328;48.170;11.602;2023-05-20T12:44:41;3.13;;;2.87;;
4630;SDS011;2328;48.170;11.602;2023-05-20T12:47:10;2.90;;;2.60;;
4630;SDS011;2328;48.170;11.602;2023-05-20T12:49:45;3.80;;;2.30;;
4630;SDS011;2328;48.170;11.602;2023-05-20T12:52:15;2.70;;;2.37;;
4630;SDS011;2328;48.170;11.602;2023-05-20T12:54:54;3.40;;;2.60;;
4630;SDS011;2328;48.170;11.602;2023-05-20T12:57:26;4.43;;;2.40;;
4630;SDS011;2328;48.170;11.602;2023-05-20T12:59:55;4.27;;;2.97;;
4630;SDS011;2328;48.170;11.602;2023-05-20T13:02:30;3.13;;;2.83;;
4630;SDS011;2328;48.170;11.602;2023-05-20T13:04:59;3.87;;;2.97;;
4630;SDS011;2328;48.170;11.602;2023-05-20T13:07:29;4.70;;;3.63;;
4630;SDS011;2328;48.170;11.602;2023-05-20T13:10:11;3.97;;;2.63;;
4630;SDS011;2328;48.170;11.602;2023-05-20T13:12:42;3.00;;;2.50;;
4630;SDS011;2328;48.170;11.602;2023-05-20T13:15:13;3.17;;;2.50;;
4630;SDS011;2328;48.170;11.602;2023-05-20T13:17:42;3.13;;;2.80;;
4630;SDS011;2328;48.170;11.602;2023-05-20T13:20:12;3.57;;;2.57;;
4630;SDS011;2328;48.170;11.602;2023-05-20T13:22:49;3.20;;;2.60;;
4630;SDS011;2328;48.170;11.602;2023-05-20T13:25:54;3.30;;;3.00;;
4630;SDS011;2328;48.170;11.602;2023-05-20T13:28:24;4.60;;;3.10;;
4630;SDS011;2328;48.170;11.602;2023-05-20T13:30:54;4.03;;;2.60;;
4630;SDS011;2328;48.170;11.602;2023-05-20T13:33:23;4.83;;;3.10;;
4630;SDS011;2328;48.170;11.602;2023-05-20T13:36:29;3.10;;;2.80;;
4630;SDS011;2328;48.170;11.602;2023-05-20T13:39:09;5.43;;;2.97;;
4630;SDS011;2328;48.170;11.602;2023-05-20T13:41:47;3.30;;;2.93;;
4630;SDS011;2328;48.170;11.602;2023-05-20T13:44:26;4.80;;;3.10;;
4630;SDS011;2328;48.170;11.602;2023-05-20T13:46:59;4.33;;;3.57;;
4630;SDS011;2328;48.170;11.602;2023-05-20T13:49:28;4.50;;;2.70;;
4630;SDS011;2328;48.170;11.602;2023-05-20T13:52:00;2.87;;;2.50;;
4630;SDS011;2328;48.170;11.602;2023-05-20T13:54:29;3.50;;;3.20;;
4630;SDS011;2328;48.170;11.602;2023-05-20T13:57:03;4.93;;;3.13;;
4630;SDS011;2328;48.170;11.602;2023-05-20T13:59:33;7.17;;;3.70;;
4630;SDS011;2328;48.170;11.602;2023-05-20T14:02:03;6.80;;;3.47;;
4630;SDS011;2328;48.170;11.602;2023-05-20T14:04:44;3.33;;;2.83;;
4630;SDS011;2328;48.170;11.602;2023-05-20T14:07:14;13.60;;;4.10;;
4630;SDS011;2328;48.170;11.602;2023-05-20T14:09:45;3.97;;;3.57;;
4630;SDS011;2328;48.170;11.602;2023-05-20T14:12:17;4.83;;;3.40;;
4630;SDS011;2328;48.170;11.602;2023-05-20T14:14:49;4.10;;;3.70;;
4630;SDS011;2328;48.170;11.602;2023-05-20T14:17:19;5.07;;;3.70;;
4630;SDS011;2328;48.170;11.602;2023-05-20T14:19:48;3.90;;;3.47;;
4630;SDS011;2328;48.170;11.602;2023-05-20T14:22:16;4.20;;;3.50;;
4630;SDS011;2328;48.170;11.602;2023-05-20T14:24:45;4.60;;;3.03;;
4630;SDS011;2328;48.170;11.602;2023-05-20T14:27:14;5.70;;;3.20;;
4630;SDS011;2328;48.170;11.602;2023-05-20T14:29:44;6.10;;;3.50;;
4630;SDS011;2328;48.170;11.602;2023-05-20T14:32:13;5.10;;;3.40;;
4630;SDS011;2328;48.170;11.602;2023-05-20T14:34:42;4.77;;;2.60;;
4630;SDS011;2328;48.170;11.602;2023-05-20T14:37:11;5.43;;;3.50;;
4630;SDS011;2328;48.170;11.602;2023-05-20T14:39:40;5.33;;;3.97;;
4630;SDS011;2328;48.170;11.602;2023-05-20T14:42:10;4.30;;;3.70;;
4630;SDS011;2328;48.170;11.602;2023-05-20T14:44:38;4.30;;;3.47;;
4630;SDS011;2328;48.170;11.602;2023-05-20T14:47:09;5.37;;;3.60;;
4630;SDS011;2328;48.170;11.602;2023-05-20T14:49:41;5.17;;;3.83;;
4630;SDS011;2328;48.170;11.602;2023-05-20T14:52:11;4.70;;;3.30;;
4630;SDS011;2328;48.170;11.602;2023-05-20T14:54:40;9.03;;;4.27;;
4630;SDS011;2328;48.170;11.602;2023-05-20T14:57:09;5.07;;;3.80;;
4630;SDS011;2328;48.170;11.602;2023-05-20T14:59:38;6.53;;;3.63;;
4630;SDS011;2328;48.170;11.602;2023-05-20T15:02:09;4.13;;;3.63;;
4630;SDS011;2328;48.170;11.602;2023-05-20T15:04:41;5.10;;;4.10;;
4630;SDS011;2328;48.170;11.602;2023-05-20T15:07:12;7.20;;;4.50;;
4630;SDS011;2328;48.170;11.602;2023-05-20T15:09:40;4.27;;;3.67;;
4630;SDS011;2328;48.170;11.602;2023-05-20T15:12:10;7.73;;;4.37;;
4630;SDS011;2328;48.170;11.602;2023-05-20T15:14:50;6.30;;;4.03;;
4630;SDS011;2328;48.170;11.602;2023-05-20T15:17:21;4.43;;;4.00;;
4630;SDS011;2328;48.170;11.602;2023-05-20T15:19:49;6.57;;;4.37;;
4630;SDS011;2328;48.170;11.602;2023-05-20T15:22:18;5.13;;;3.60;;
4630;SDS011;2328;48.170;11.602;2023-05-20T15:24:47;5.70;;;4.37;;
4630;SDS011;2328;48.170;11.602;2023-05-20T15:27:17;5.30;;;3.90;;
4630;SDS011;2328;48.170;11.602;2023-05-20T15:29:46;5.40;;;4.30;;
4630;SDS011;2328;48.170;11.602;2023-05-20T15:32:15;6.00;;;4.23;;